createdAt,value
2023-05-10T04:31:32.966Z,20.3861
2023-05-10T04:32:35.035Z,20.2697
2023-05-10T04:33:37.042Z,20.2941
2023-05-10T04:34:39.169Z,20.3161
2023-05-10T04:35:41.194Z,20.3330
2023-05-10T04:36:43.201Z,20.3580
2023-05-10T04:37:45.884Z,20.3789
2023-05-10T04:38:47.283Z,20.4082
2023-05-10T04:39:51.897Z,20.4370
2023-05-10T04:40:51.379Z,20.4594
2023-05-10T04:41:53.439Z,20.4895
2023-05-10T04:42:55.466Z,20.5221
2023-05-10T04:43:57.510Z,20.5473
2023-05-10T04:44:59.596Z,20.5772
2023-05-10T04:46:01.614Z,20.6132
2023-05-10T04:47:03.643Z,20.6491
2023-05-10T04:48:05.777Z,20.6804
2023-05-10T04:49:07.723Z,20.7125
2023-05-10T04:50:09.751Z,20.7349
2023-05-10T04:51:11.800Z,20.7623
2023-05-10T04:52:13.861Z,20.8105
2023-05-10T04:53:16.056Z,20.8423
2023-05-10T04:54:17.941Z,20.8588
2023-05-10T04:55:19.988Z,20.8766
2023-05-10T04:56:22.025Z,20.9024
2023-05-10T04:57:24.066Z,20.9225
2023-05-10T04:58:26.104Z,20.9273
2023-05-10T04:59:28.211Z,20.9314
2023-05-10T05:00:30.189Z,20.9235
2023-05-10T05:01:32.319Z,20.9362
2023-05-10T05:02:34.371Z,20.9480
2023-05-10T05:03:36.342Z,20.9574
2023-05-10T05:04:38.365Z,20.9521
2023-05-10T05:05:40.410Z,20.9429
2023-05-10T05:06:42.467Z,20.9578
2023-05-10T05:07:44.492Z,20.9649
2023-05-10T05:08:46.528Z,20.9515
2023-05-10T05:09:48.584Z,20.9564
2023-05-10T05:10:50.698Z,20.9617
2023-05-10T05:11:52.681Z,20.9647
2023-05-10T05:12:54.731Z,20.9724
2023-05-10T05:13:56.740Z,20.9698
2023-05-10T05:14:58.800Z,20.9702
2023-05-10T05:16:00.857Z,20.9847
2023-05-10T05:17:02.881Z,20.9864
2023-05-10T05:18:04.994Z,20.9780
2023-05-10T05:19:06.971Z,20.9822
2023-05-10T05:20:09.024Z,20.9860
2023-05-10T05:21:11.072Z,20.9876
2023-05-10T05:22:13.114Z,20.9868
2023-05-10T05:23:15.142Z,20.9942
2023-05-10T05:24:17.194Z,21.0248
2023-05-10T05:25:19.244Z,21.0250
2023-05-10T05:26:21.301Z,21.0240
2023-05-10T05:27:23.326Z,21.0185
2023-05-10T05:28:25.377Z,21.0258
2023-05-10T05:29:27.442Z,21.0193
2023-05-10T05:30:29.443Z,20.9998
2023-05-10T05:31:31.558Z,20.9853
2023-05-10T05:32:33.724Z,20.9819
2023-05-10T05:33:37.531Z,20.9779
2023-05-10T05:34:37.639Z,20.9901
2023-05-10T05:35:40.478Z,21.0162
2023-05-10T05:36:41.731Z,21.0572
2023-05-10T05:37:43.788Z,21.1102
2023-05-10T05:38:45.802Z,21.1584
2023-05-10T05:39:47.957Z,21.1997
2023-05-10T05:40:50.045Z,21.2198
2023-05-10T05:41:51.960Z,21.2241
2023-05-10T05:42:53.986Z,21.2240
2023-05-10T05:43:56.043Z,21.2234
2023-05-10T05:44:58.059Z,21.2243
2023-05-10T05:46:00.202Z,21.2400
2023-05-10T05:47:02.284Z,21.2582
2023-05-10T05:48:04.359Z,21.2852
2023-05-10T05:49:06.306Z,21.3012
2023-05-10T05:50:08.355Z,21.3189
2023-05-10T05:51:12.063Z,21.3484
2023-05-10T05:52:12.400Z,21.3654
2023-05-10T05:53:31.400Z,21.3811
2023-05-10T05:54:17.803Z,21.3954
2023-05-10T05:55:20.552Z,21.4145
2023-05-10T05:56:20.614Z,21.4237
2023-05-10T05:57:22.630Z,21.4329
2023-05-10T05:58:24.671Z,21.4557
2023-05-10T05:59:26.757Z,21.4756
2023-05-10T06:00:31.513Z,21.5012
2023-05-10T06:01:31.361Z,21.4971
2023-05-10T06:02:32.946Z,21.4971
2023-05-10T06:03:35.032Z,21.5088
2023-05-10T06:04:36.994Z,21.5360
2023-05-10T06:05:39.009Z,21.5279
2023-05-10T06:06:42.009Z,21.5124
2023-05-10T06:07:43.906Z,21.5145
2023-05-10T06:08:45.121Z,21.5057
2023-05-10T06:09:47.201Z,21.5162
2023-05-10T06:10:49.227Z,21.5139
2023-05-10T06:11:51.323Z,21.4758
2023-05-10T06:12:53.419Z,21.4644
2023-05-10T06:13:55.408Z,21.4687
2023-05-10T06:14:57.460Z,21.4540
2023-05-10T06:15:59.490Z,21.4533
2023-05-10T06:17:01.830Z,21.4748
2023-05-10T06:18:06.688Z,21.4510
2023-05-10T06:19:06.764Z,21.4293
2023-05-10T06:20:07.664Z,21.4030
2023-05-10T06:21:09.691Z,21.3726
2023-05-10T06:22:12.729Z,21.3715
2023-05-10T06:23:13.809Z,21.3787
2023-05-10T06:24:14.308Z,21.3901
2023-05-10T06:25:20.527Z,21.3985
2023-05-10T06:26:20.058Z,21.3602
2023-05-10T06:27:21.992Z,21.3116
2023-05-10T06:28:27.057Z,21.2763
2023-05-10T06:29:26.068Z,21.2479
2023-05-10T06:30:28.120Z,21.2327
2023-05-10T06:31:30.220Z,21.1944
2023-05-10T06:32:32.266Z,21.1599
2023-05-10T06:33:34.336Z,21.1556
2023-05-10T06:34:36.315Z,21.1721
2023-05-10T06:35:38.348Z,21.1404
2023-05-10T06:36:40.390Z,21.1464
2023-05-10T06:37:42.447Z,21.1748
2023-05-10T06:38:44.467Z,21.1668
2023-05-10T06:39:46.526Z,21.1348
2023-05-10T06:40:48.580Z,21.1330
2023-05-10T06:41:50.603Z,21.1237
2023-05-10T06:42:52.692Z,21.1287
2023-05-10T06:43:54.865Z,21.1147
2023-05-10T06:44:56.729Z,21.1013
2023-05-10T06:45:58.847Z,21.0994
2023-05-10T06:47:00.846Z,21.1023
2023-05-10T06:48:04.577Z,21.1029
2023-05-10T06:49:04.937Z,21.0803
2023-05-10T06:50:07.028Z,21.0572
2023-05-10T06:51:09.043Z,21.0536
2023-05-10T06:52:11.164Z,21.0500
2023-05-10T06:53:13.104Z,21.0599
2023-05-10T06:54:15.191Z,21.0979
2023-05-10T06:55:17.455Z,21.1243
2023-05-10T06:56:19.261Z,21.1201
2023-05-10T06:57:31.169Z,21.0754
2023-05-10T06:58:23.328Z,21.0626
2023-05-10T06:59:25.452Z,21.0629
2023-05-10T07:00:27.473Z,21.0838
2023-05-10T07:01:29.493Z,21.1068
2023-05-10T07:02:31.545Z,21.1211
2023-05-10T07:03:33.613Z,21.1324
2023-05-10T07:04:35.693Z,21.1229
2023-05-10T07:05:37.860Z,21.1355
2023-05-10T07:06:39.734Z,21.1614
2023-05-10T07:07:41.767Z,21.1843
2023-05-10T07:08:43.820Z,21.2042
2023-05-10T07:09:45.869Z,21.2100
2023-05-10T07:10:47.909Z,21.2469
2023-05-10T07:11:49.942Z,21.2519
2023-05-10T07:12:52.226Z,21.2570
2023-05-10T07:13:56.063Z,21.2658
2023-05-10T07:14:56.096Z,21.2654
2023-05-10T07:15:58.123Z,21.2372
2023-05-10T07:17:00.296Z,21.2543
2023-05-10T07:18:02.288Z,21.2632
2023-05-10T07:19:04.270Z,21.2733
2023-05-10T07:20:06.388Z,21.3225
2023-05-10T07:21:08.354Z,21.3606
2023-05-10T07:22:10.404Z,21.3884
2023-05-10T07:23:12.445Z,21.4154
2023-05-10T07:24:14.511Z,21.4260
2023-05-10T07:25:16.623Z,21.3952
2023-05-10T07:26:18.617Z,21.3655
2023-05-10T07:27:20.605Z,21.3599
2023-05-10T07:28:22.688Z,21.3457
2023-05-10T07:29:24.764Z,21.3289
2023-05-10T07:30:26.780Z,21.3143
2023-05-10T07:31:28.893Z,21.2882
2023-05-10T07:32:30.886Z,21.2576
2023-05-10T07:33:32.964Z,21.2390
2023-05-10T07:34:34.966Z,21.2091
2023-05-10T07:35:37.100Z,21.1957
2023-05-10T07:36:39.034Z,21.1987
2023-05-10T07:37:41.112Z,21.1914
2023-05-10T07:38:43.136Z,21.1800
2023-05-10T07:39:45.216Z,21.1858
2023-05-10T07:40:47.207Z,21.1758
2023-05-10T07:41:49.279Z,21.1962
2023-05-10T07:42:51.322Z,21.2286
2023-05-10T07:43:53.360Z,21.2325
2023-05-10T07:44:55.399Z,21.2229
2023-05-10T07:45:57.470Z,21.2293
2023-05-10T07:46:59.484Z,21.2279
2023-05-10T07:48:01.553Z,21.2485
2023-05-10T07:49:03.591Z,21.2847
2023-05-10T07:50:07.874Z,21.3140
2023-05-10T07:51:07.688Z,21.3600
2023-05-10T07:52:09.747Z,21.3752
2023-05-10T07:53:11.852Z,21.3402
2023-05-10T07:54:13.870Z,21.2921
2023-05-10T07:55:16.096Z,21.2640
2023-05-10T07:56:18.513Z,21.2441
2023-05-10T07:57:20.007Z,21.2314
2023-05-10T07:58:24.047Z,21.2589
2023-05-10T07:59:25.971Z,21.2580
2023-05-10T08:00:26.126Z,21.2300
2023-05-10T08:01:28.142Z,21.2356
2023-05-10T08:02:30.343Z,21.2777
2023-05-10T08:03:32.487Z,21.2932
2023-05-10T08:04:34.322Z,21.2798
2023-05-10T08:05:36.349Z,21.2929
2023-05-10T08:06:38.399Z,21.2855
2023-05-10T08:07:40.412Z,21.2844
2023-05-10T08:08:42.543Z,21.2701
2023-05-10T08:09:44.532Z,21.2640
2023-05-10T08:10:46.603Z,21.2463
2023-05-10T08:11:49.113Z,21.2471
2023-05-10T08:12:50.769Z,21.2180
2023-05-10T08:13:53.495Z,21.1562
2023-05-10T08:14:56.488Z,21.1314
2023-05-10T08:15:57.082Z,21.0912
2023-05-10T08:17:11.632Z,21.0781
2023-05-10T08:18:00.973Z,21.0874
2023-05-10T08:19:04.319Z,21.0834
2023-05-10T08:20:05.339Z,21.0920
2023-05-10T08:21:07.051Z,21.1098
2023-05-10T08:22:09.087Z,21.1207
2023-05-10T08:23:11.120Z,21.1445
2023-05-10T08:24:13.280Z,21.1633
2023-05-10T08:25:18.155Z,21.1773
2023-05-10T08:26:17.276Z,21.1821
2023-05-10T08:27:19.460Z,21.1981
2023-05-10T08:28:21.461Z,21.2301
2023-05-10T08:29:23.366Z,21.2530
2023-05-10T08:30:25.453Z,21.2462
2023-05-10T08:31:27.894Z,21.2618
2023-05-10T08:32:29.556Z,21.2753
2023-05-10T08:33:31.608Z,21.2852
2023-05-10T08:34:34.541Z,21.2679
2023-05-10T08:35:35.768Z,21.2856
2023-05-10T08:36:37.783Z,21.2992
2023-05-10T08:37:40.228Z,21.3261
2023-05-10T08:38:41.872Z,21.3347
2023-05-10T08:39:43.950Z,21.3260
2023-05-10T08:40:46.132Z,21.3435
2023-05-10T08:41:49.004Z,21.3635
2023-05-10T08:42:50.220Z,21.3894
2023-05-10T08:43:55.109Z,21.3922
2023-05-10T08:44:54.182Z,21.3458
2023-05-10T08:45:56.244Z,21.3246
2023-05-10T08:46:58.268Z,21.3162
2023-05-10T08:48:00.440Z,21.3325
2023-05-10T08:49:02.342Z,21.3687
2023-05-10T08:50:04.377Z,21.3977
2023-05-10T08:51:06.552Z,21.4075
2023-05-10T08:52:08.609Z,21.3930
2023-05-10T08:53:10.702Z,21.3868
2023-05-10T08:54:12.553Z,21.3588
2023-05-10T08:55:14.739Z,21.3555
2023-05-10T08:56:16.730Z,21.3441
2023-05-10T08:57:18.755Z,21.3930
2023-05-10T08:58:20.802Z,21.4340
2023-05-10T08:59:22.919Z,21.4724
2023-05-10T09:00:26.097Z,21.5049
2023-05-10T09:01:29.603Z,21.4678
2023-05-10T09:02:29.566Z,21.4310
2023-05-10T09:03:30.947Z,21.4185
2023-05-10T09:04:33.052Z,21.4276
2023-05-10T09:05:37.124Z,21.4359
2023-05-10T09:06:38.033Z,21.4532
2023-05-10T09:07:40.217Z,21.4622
2023-05-10T09:08:41.188Z,21.4173
2023-05-10T09:09:44.626Z,21.3555
2023-05-10T09:10:49.222Z,21.3464
2023-05-10T09:11:47.361Z,21.3408
2023-05-10T09:13:05.114Z,21.3165
2023-05-10T09:13:52.215Z,21.3210
2023-05-10T09:14:53.457Z,21.3267
2023-05-10T09:16:00.328Z,21.3292
2023-05-10T09:16:57.612Z,21.3020
2023-05-10T09:18:01.499Z,21.3150
2023-05-10T09:19:01.665Z,21.3381
2023-05-10T09:20:03.729Z,21.3532
2023-05-10T09:21:05.714Z,21.3626
2023-05-10T09:22:08.579Z,21.3752
2023-05-10T09:23:09.805Z,21.3766
2023-05-10T09:24:11.846Z,21.3815
2023-05-10T09:25:14.801Z,21.3912
2023-05-10T09:26:15.984Z,21.3866
2023-05-10T09:27:17.995Z,21.3804
2023-05-10T09:28:20.114Z,21.3435
2023-05-10T09:29:22.130Z,21.3157
2023-05-10T09:30:24.274Z,21.3057
2023-05-10T09:31:26.359Z,21.2871
2023-05-10T09:32:28.310Z,21.2565
2023-05-10T09:33:30.291Z,21.2225
2023-05-10T09:34:35.666Z,21.2225
2023-05-10T09:35:34.354Z,21.2471
2023-05-10T09:36:36.389Z,21.2702
2023-05-10T09:37:39.016Z,21.2773
2023-05-10T09:38:40.472Z,21.2846
2023-05-10T09:39:42.534Z,21.2906
2023-05-10T09:40:44.656Z,21.2709
2023-05-10T09:41:46.587Z,21.2710
2023-05-10T09:42:48.653Z,21.3015
2023-05-10T09:43:50.661Z,21.3066
2023-05-10T09:44:52.732Z,21.2628
2023-05-10T09:45:54.866Z,21.2682
2023-05-10T09:46:57.377Z,21.2702
2023-05-10T09:47:58.951Z,21.2463
2023-05-10T09:49:00.927Z,21.2346
2023-05-10T09:50:02.928Z,21.2874
2023-05-10T09:51:05.083Z,21.3484
2023-05-10T09:52:07.116Z,21.3951
2023-05-10T09:53:09.057Z,21.4368
2023-05-10T09:54:11.134Z,21.4632
2023-05-10T09:55:13.157Z,21.4645
2023-05-10T09:56:15.222Z,21.4322
2023-05-10T09:57:17.264Z,21.3927
2023-05-10T09:58:19.416Z,21.3826
2023-05-10T09:59:21.299Z,21.4328
2023-05-10T10:00:23.430Z,21.4855
2023-05-10T10:01:25.473Z,21.5036
2023-05-10T10:02:27.521Z,21.4973
2023-05-10T10:03:30.413Z,21.5045
2023-05-10T10:04:31.684Z,21.4998
2023-05-10T10:05:33.614Z,21.5193
2023-05-10T10:06:35.635Z,21.5285
2023-05-10T10:07:37.686Z,21.5028
2023-05-10T10:08:39.737Z,21.4775
2023-05-10T10:09:41.785Z,21.3979
2023-05-10T10:10:43.798Z,21.3284
2023-05-10T10:11:46.106Z,21.2576
2023-05-10T10:12:47.921Z,21.1881
2023-05-10T10:13:49.971Z,21.2242
2023-05-10T10:14:51.982Z,21.2690
2023-05-10T10:15:54.075Z,21.2730
2023-05-10T10:17:06.407Z,21.2387
2023-05-10T10:17:58.143Z,21.2111
2023-05-10T10:19:00.438Z,21.2042
2023-05-10T10:20:02.192Z,21.1584
2023-05-10T10:21:04.417Z,21.1327
2023-05-10T10:22:06.309Z,21.1329
2023-05-10T10:23:08.294Z,21.1345
2023-05-10T10:24:10.394Z,21.1695
2023-05-10T10:25:12.402Z,21.2277
2023-05-10T10:26:14.429Z,21.2605
2023-05-10T10:27:16.541Z,21.2849
2023-05-10T10:28:18.853Z,21.3193
2023-05-10T10:29:20.561Z,21.3249
2023-05-10T10:30:22.622Z,21.3032
2023-05-10T10:31:24.697Z,21.2628
2023-05-10T10:32:26.782Z,21.2650
2023-05-10T10:33:29.252Z,21.2591
2023-05-10T10:34:30.816Z,21.2344
2023-05-10T10:35:32.879Z,21.2160
2023-05-10T10:36:34.931Z,21.2042
2023-05-10T10:37:37.028Z,21.2295
2023-05-10T10:38:39.066Z,21.2493
2023-05-10T10:39:41.031Z,21.2602
2023-05-10T10:40:43.069Z,21.2668
2023-05-10T10:41:45.141Z,21.2775
2023-05-10T10:42:47.187Z,21.2639
2023-05-10T10:43:49.206Z,21.2781
2023-05-10T10:44:51.251Z,21.3168
2023-05-10T10:45:53.302Z,21.3894
2023-05-10T10:46:55.361Z,21.4217
2023-05-10T10:47:57.474Z,21.3928
2023-05-10T10:48:59.484Z,21.3975
2023-05-10T10:50:01.592Z,21.4273
2023-05-10T10:51:03.523Z,21.4731
2023-05-10T10:52:05.580Z,21.5333
2023-05-10T10:53:07.779Z,21.5679
2023-05-10T10:54:09.671Z,21.5411
2023-05-10T10:55:11.753Z,21.5126
2023-05-10T10:56:13.742Z,21.4916
2023-05-10T10:57:15.883Z,21.5415
2023-05-10T10:58:17.842Z,21.5799
2023-05-10T10:59:19.858Z,21.6298
2023-05-10T11:00:21.968Z,21.6559
2023-05-10T11:01:23.998Z,21.6502
2023-05-10T11:02:26.122Z,21.5917
2023-05-10T11:03:28.057Z,21.5620
2023-05-10T11:04:30.155Z,21.5306
2023-05-10T11:05:32.222Z,21.4706
2023-05-10T11:06:34.256Z,21.4371
2023-05-10T11:07:36.208Z,21.3932
2023-05-10T11:08:39.074Z,21.3413
2023-05-10T11:09:40.400Z,21.3344
2023-05-10T11:10:42.328Z,21.3358
2023-05-10T11:11:44.435Z,21.3044
2023-05-10T11:12:46.448Z,21.2627
2023-05-10T11:13:50.955Z,21.2820
2023-05-10T11:14:50.760Z,21.3018
2023-05-10T11:15:52.640Z,21.3205
2023-05-10T11:16:54.688Z,21.2919
2023-05-10T11:17:58.647Z,21.2665
2023-05-10T11:18:58.863Z,21.2691
2023-05-10T11:20:00.802Z,21.2575
2023-05-10T11:21:02.836Z,21.2569
2023-05-10T11:22:04.854Z,21.2891
2023-05-10T11:23:06.908Z,21.3423
2023-05-10T11:24:08.941Z,21.3748
2023-05-10T11:25:11.016Z,21.3941
2023-05-10T11:26:13.557Z,21.3477
2023-05-10T11:27:16.382Z,21.3522
2023-05-10T11:28:17.119Z,21.3201
2023-05-10T11:29:19.172Z,21.3029
2023-05-10T11:30:21.288Z,21.3230
2023-05-10T11:31:23.324Z,21.3398
2023-05-10T11:32:25.382Z,21.3595
2023-05-10T11:33:27.339Z,21.3672
2023-05-10T11:34:29.388Z,21.3584
2023-05-10T11:35:31.447Z,21.3797
2023-05-10T11:36:33.581Z,21.3950
2023-05-10T11:37:35.514Z,21.4124
2023-05-10T11:38:37.685Z,21.3962
2023-05-10T11:39:39.661Z,21.3763
2023-05-10T11:40:41.661Z,21.3842
2023-05-10T11:41:43.731Z,21.3486
2023-05-10T11:42:45.823Z,21.3245
2023-05-10T11:43:47.821Z,21.3477
2023-05-10T11:44:49.851Z,21.3653
2023-05-10T11:45:52.061Z,21.3514
2023-05-10T11:46:53.937Z,21.3562
2023-05-10T11:47:56.045Z,21.3513
2023-05-10T11:48:58.146Z,21.3216
2023-05-10T11:50:00.147Z,21.3042
2023-05-10T11:51:02.267Z,21.2968
2023-05-10T11:52:04.280Z,21.3019
2023-05-10T11:53:06.296Z,21.3626
2023-05-10T11:54:08.284Z,21.3968
2023-05-10T11:55:10.339Z,21.3679
2023-05-10T11:56:12.427Z,21.3954
2023-05-10T11:57:14.408Z,21.4416
2023-05-10T11:58:16.493Z,21.4734
2023-05-10T11:59:18.509Z,21.4847
2023-05-10T12:00:20.594Z,21.4835
2023-05-10T12:01:22.659Z,21.4674
2023-05-10T12:02:24.705Z,21.4546
2023-05-10T12:03:26.809Z,21.4383
2023-05-10T12:04:28.977Z,21.4206
2023-05-10T12:05:30.828Z,21.4318
2023-05-10T12:06:32.987Z,21.4345
2023-05-10T12:07:35.026Z,21.4378
2023-05-10T12:08:36.935Z,21.4385
2023-05-10T12:09:43.828Z,21.4179
2023-05-10T12:10:41.013Z,21.4139
2023-05-10T12:11:44.318Z,21.4087
2023-05-10T12:12:45.494Z,21.4180
2023-05-10T12:13:49.076Z,21.4196
2023-05-10T12:14:49.193Z,21.4036
2023-05-10T12:15:51.269Z,21.4002
2023-05-10T12:16:53.608Z,21.4808
2023-05-10T12:17:55.480Z,21.5407
2023-05-10T12:18:57.448Z,21.6001
2023-05-10T12:19:59.518Z,21.6329
2023-05-10T12:21:01.502Z,21.6544
2023-05-10T12:22:03.565Z,21.6938
2023-05-10T12:23:05.612Z,21.7074
2023-05-10T12:24:10.007Z,21.7207
2023-05-10T12:25:09.681Z,21.7046
2023-05-10T12:26:11.828Z,21.7035
2023-05-10T12:27:13.795Z,21.7043
2023-05-10T12:28:15.810Z,21.7062
2023-05-10T12:29:19.685Z,21.7155
2023-05-10T12:30:20.625Z,21.7388
2023-05-10T12:31:22.049Z,21.7609
2023-05-10T12:32:24.032Z,21.7625
2023-05-10T12:33:26.077Z,21.7755
2023-05-10T12:34:29.610Z,21.7864
2023-05-10T12:35:31.153Z,21.7767
2023-05-10T12:36:32.314Z,21.7565
2023-05-10T12:37:34.271Z,21.7244
2023-05-10T12:38:36.416Z,21.6419
2023-05-10T12:39:38.498Z,21.5798
2023-05-10T12:40:42.223Z,21.5750
2023-05-10T12:41:43.721Z,21.5397
2023-05-10T12:42:45.124Z,21.4982
2023-05-10T12:43:46.670Z,21.5099
2023-05-10T12:44:48.691Z,21.5743
2023-05-10T12:45:50.878Z,21.6262
2023-05-10T12:46:52.749Z,21.6661
2023-05-10T12:47:55.271Z,21.6576
2023-05-10T12:49:08.103Z,21.6043
2023-05-10T12:50:11.143Z,21.5391
2023-05-10T12:51:02.664Z,21.4652
2023-05-10T12:52:03.012Z,21.4727
2023-05-10T12:53:05.036Z,21.4814
2023-05-10T12:54:07.113Z,21.5056
2023-05-10T12:55:09.176Z,21.5098
2023-05-10T12:56:11.272Z,21.5147
2023-05-10T12:57:13.208Z,21.5376
2023-05-10T12:58:27.785Z,21.5520
2023-05-10T12:59:17.375Z,21.5340
2023-05-10T13:00:19.389Z,21.4814
2023-05-10T13:01:21.515Z,21.4456
2023-05-10T13:02:23.498Z,21.4138
2023-05-10T13:03:25.544Z,21.4156
2023-05-10T13:04:27.602Z,21.4477
2023-05-10T13:05:29.587Z,21.4663
2023-05-10T13:06:31.773Z,21.4793
2023-05-10T13:07:33.681Z,21.4789
2023-05-10T13:08:36.293Z,21.4744
2023-05-10T13:09:37.781Z,21.4620
2023-05-10T13:10:39.842Z,21.4650
2023-05-10T13:11:41.848Z,21.4455
2023-05-10T13:12:43.904Z,21.4611
2023-05-10T13:13:45.940Z,21.4633
2023-05-10T13:14:48.009Z,21.4416
2023-05-10T13:15:50.009Z,21.4109
2023-05-10T13:16:52.112Z,21.3871
2023-05-10T13:17:54.157Z,21.3876
2023-05-10T13:18:56.169Z,21.3937
2023-05-10T13:19:58.254Z,21.3854
2023-05-10T13:21:00.240Z,21.3794
2023-05-10T13:22:02.286Z,21.4034
2023-05-10T13:23:04.336Z,21.4285
2023-05-10T13:24:06.437Z,21.4752
2023-05-10T13:25:08.431Z,21.5623
2023-05-10T13:26:11.099Z,21.6157
2023-05-10T13:27:13.098Z,21.6970
2023-05-10T13:28:14.564Z,21.8197
2023-05-10T13:29:16.783Z,21.8814
2023-05-10T13:30:18.858Z,21.9415
2023-05-10T13:31:20.720Z,21.9791
2023-05-10T13:32:22.756Z,22.0397
2023-05-10T13:33:24.822Z,22.0928
2023-05-10T13:34:26.844Z,22.1306
2023-05-10T13:35:30.057Z,22.1492
2023-05-10T13:36:30.971Z,22.1619
2023-05-10T13:37:32.951Z,22.0735
2023-05-10T13:38:35.020Z,21.9488
2023-05-10T13:39:37.053Z,21.8462
2023-05-10T13:40:39.166Z,21.7783
2023-05-10T13:41:41.146Z,21.7302
2023-05-10T13:42:43.221Z,21.7027
2023-05-10T13:43:45.295Z,21.6603
2023-05-10T13:44:47.326Z,21.5982
2023-05-10T13:45:49.360Z,21.5921
2023-05-10T13:46:52.261Z,21.6304
2023-05-10T13:47:53.868Z,21.6810
2023-05-10T13:48:55.492Z,21.7165
2023-05-10T13:49:59.151Z,21.7596
2023-05-10T13:50:59.550Z,21.7644
2023-05-10T13:52:01.624Z,21.7638
2023-05-10T13:53:03.678Z,21.7659
2023-05-10T13:54:05.734Z,21.7889
2023-05-10T13:55:07.913Z,21.7714
2023-05-10T13:56:41.270Z,21.7259
2023-05-10T13:57:16.248Z,21.6647
2023-05-10T13:58:16.117Z,21.6459
2023-05-10T13:59:16.038Z,21.6781
2023-05-10T14:00:18.008Z,21.7159
2023-05-10T14:01:20.194Z,21.7357
2023-05-10T14:02:22.284Z,21.7381
2023-05-10T14:03:24.275Z,21.7274
2023-05-10T14:04:26.226Z,21.6987
2023-05-10T14:05:28.469Z,21.6670
2023-05-10T14:06:30.236Z,21.6353
2023-05-10T14:07:32.281Z,21.6190
2023-05-10T14:08:34.371Z,21.5868
2023-05-10T14:09:36.385Z,21.6235
2023-05-10T14:10:40.255Z,21.7072
2023-05-10T14:11:40.525Z,21.8111
2023-05-10T14:12:42.528Z,21.8192
2023-05-10T14:13:44.578Z,21.7740
2023-05-10T14:14:47.318Z,21.7269
2023-05-10T14:15:48.648Z,21.6680
2023-05-10T14:16:50.910Z,21.6446
2023-05-10T14:17:52.797Z,21.6433
2023-05-10T14:18:54.796Z,21.7092
2023-05-10T14:19:56.853Z,21.7399
2023-05-10T14:20:59.353Z,21.7266
2023-05-10T14:22:00.948Z,21.7026
2023-05-10T14:23:02.965Z,21.6993
2023-05-10T14:24:04.981Z,21.7237
2023-05-10T14:25:07.623Z,21.7455
2023-05-10T14:26:09.318Z,21.7545
2023-05-10T14:27:11.321Z,21.7795
2023-05-10T14:28:13.284Z,21.7693
2023-05-10T14:29:15.200Z,21.7439
2023-05-10T14:30:17.309Z,21.6983
2023-05-10T14:31:19.744Z,21.6442
2023-05-10T14:32:21.424Z,21.6217
2023-05-10T14:33:23.627Z,21.6862
2023-05-10T14:34:25.519Z,21.7824
2023-05-10T14:35:27.473Z,21.8495
2023-05-10T14:36:31.207Z,21.9185
2023-05-10T14:37:31.639Z,21.9895
2023-05-10T14:38:33.660Z,22.0980
2023-05-10T14:39:35.689Z,22.1994
2023-05-10T14:40:37.720Z,22.2079
2023-05-10T14:41:42.662Z,22.1608
2023-05-10T14:42:41.761Z,22.1705
2023-05-10T14:43:43.822Z,22.1503
2023-05-10T14:44:45.881Z,22.0896
2023-05-10T14:45:47.950Z,21.9928
2023-05-10T14:46:50.076Z,21.9591
2023-05-10T14:47:53.764Z,21.9071
2023-05-10T14:48:54.062Z,21.8358
2023-05-10T14:49:56.089Z,21.7831
2023-05-10T14:50:58.172Z,21.7754
2023-05-10T14:52:00.367Z,21.7273
2023-05-10T14:53:03.728Z,21.7121
2023-05-10T14:54:04.285Z,21.7223
2023-05-10T14:55:06.930Z,21.7045
2023-05-10T14:56:08.402Z,21.6881
2023-05-10T14:57:10.396Z,21.6438
2023-05-10T14:58:12.507Z,21.5879
2023-05-10T14:59:14.515Z,21.5691
2023-05-10T15:00:16.772Z,21.5520
2023-05-10T15:01:18.582Z,21.5692
2023-05-10T15:02:20.709Z,21.5862
2023-05-10T15:03:22.820Z,21.6489
2023-05-10T15:04:25.964Z,21.6754
2023-05-10T15:05:26.857Z,21.6936
2023-05-10T15:06:28.777Z,21.7010
2023-05-10T15:07:30.986Z,21.7063
2023-05-10T15:08:32.920Z,21.7069
2023-05-10T15:09:34.913Z,21.6691
2023-05-10T15:10:36.926Z,21.6586
2023-05-10T15:11:39.071Z,21.6446
2023-05-10T15:12:41.045Z,21.6346
2023-05-10T15:13:43.090Z,21.6149
2023-05-10T15:14:45.102Z,21.6549
2023-05-10T15:15:47.204Z,21.6589
2023-05-10T15:16:49.212Z,21.6216
2023-05-10T15:17:51.425Z,21.5941
2023-05-10T15:18:53.364Z,21.6034
2023-05-10T15:19:55.358Z,21.6187
2023-05-10T15:20:57.458Z,21.6463
2023-05-10T15:21:59.524Z,21.6453
2023-05-10T15:23:01.503Z,21.6364
2023-05-10T15:24:03.526Z,21.6042
2023-05-10T15:25:05.624Z,21.5534
2023-05-10T15:26:07.667Z,21.4770
2023-05-10T15:27:09.693Z,21.4571
2023-05-10T15:28:12.661Z,21.4770
2023-05-10T15:29:13.736Z,21.4880
2023-05-10T15:30:15.851Z,21.4977
2023-05-10T15:31:17.857Z,21.5064
2023-05-10T15:32:19.910Z,21.4691
2023-05-10T15:33:22.608Z,21.4248
2023-05-10T15:34:24.029Z,21.4044
2023-05-10T15:35:26.516Z,21.4067
2023-05-10T15:36:28.063Z,21.3955
2023-05-10T15:37:30.117Z,21.3764
2023-05-10T15:38:32.129Z,21.4200
2023-05-10T15:39:34.209Z,21.4620
2023-05-10T15:40:36.241Z,21.5016
2023-05-10T15:41:38.271Z,21.5327
2023-05-10T15:42:40.346Z,21.5398
2023-05-10T15:43:42.571Z,21.5367
2023-05-10T15:44:44.461Z,21.5407
2023-05-10T15:45:46.454Z,21.5406
2023-05-10T15:46:49.438Z,21.5253
2023-05-10T15:47:50.624Z,21.5462
2023-05-10T15:48:52.656Z,21.5467
2023-05-10T15:49:55.071Z,21.5156
2023-05-10T15:50:56.740Z,21.4988
2023-05-10T15:51:58.709Z,21.4905
2023-05-10T15:53:00.934Z,21.4666
2023-05-10T15:54:07.625Z,21.5093
2023-05-10T15:55:04.921Z,21.5228
2023-05-10T15:56:06.917Z,21.5474
2023-05-10T15:57:09.024Z,21.5816
2023-05-10T15:58:13.618Z,21.5997
2023-05-10T15:59:13.035Z,21.5995
2023-05-10T16:00:15.104Z,21.6103
2023-05-10T16:01:17.202Z,21.5960
2023-05-10T16:02:19.241Z,21.5618
2023-05-10T16:03:21.259Z,21.5552
2023-05-10T16:04:23.274Z,21.5740
2023-05-10T16:05:25.346Z,21.5790
2023-05-10T16:06:27.417Z,21.5453
2023-05-10T16:07:29.588Z,21.5304
2023-05-10T16:08:36.697Z,21.5457
2023-05-10T16:09:33.629Z,21.5437
2023-05-10T16:10:35.565Z,21.5145
2023-05-10T16:11:37.785Z,21.5222
2023-05-10T16:12:39.726Z,21.5667
2023-05-10T16:13:41.711Z,21.6096
2023-05-10T16:14:43.740Z,21.6499
2023-05-10T16:15:45.927Z,21.6346
2023-05-10T16:16:47.924Z,21.5502
2023-05-10T16:17:50.108Z,21.5305
2023-05-10T16:18:52.242Z,21.4973
2023-05-10T16:19:54.005Z,21.5120
2023-05-10T16:20:56.023Z,21.5297
2023-05-10T16:21:58.490Z,21.4939
2023-05-10T16:23:00.127Z,21.5226
2023-05-10T16:24:02.177Z,21.5613
2023-05-10T16:25:04.211Z,21.5849
2023-05-10T16:26:06.267Z,21.5902
2023-05-10T16:27:08.278Z,21.5555
2023-05-10T16:28:10.420Z,21.4970
2023-05-10T16:29:12.410Z,21.4750
2023-05-10T16:30:14.408Z,21.4519
2023-05-10T16:31:16.464Z,21.4503
2023-05-10T16:32:18.524Z,21.4581
2023-05-10T16:33:20.630Z,21.4548
2023-05-10T16:34:22.596Z,21.4770
2023-05-10T16:35:24.654Z,21.4954
2023-05-10T16:36:26.892Z,21.5034
2023-05-10T16:37:28.838Z,21.4831
2023-05-10T16:38:30.754Z,21.4953
2023-05-10T16:39:32.833Z,21.4901
2023-05-10T16:40:43.677Z,21.4729
2023-05-10T16:41:36.874Z,21.4091
2023-05-10T16:42:38.977Z,21.3595
2023-05-10T16:43:41.059Z,21.3113
2023-05-10T16:44:43.112Z,21.2859
2023-05-10T16:45:45.762Z,21.2882
2023-05-10T16:46:47.738Z,21.3101
2023-05-10T16:47:49.300Z,21.3690
2023-05-10T16:48:51.308Z,21.4396
2023-05-10T16:49:53.305Z,21.4951
2023-05-10T16:50:55.409Z,21.5593
2023-05-10T16:51:57.416Z,21.5948
2023-05-10T16:52:59.577Z,21.6185
2023-05-10T16:54:01.523Z,21.6018
2023-05-10T16:55:03.602Z,21.5692
2023-05-10T16:56:05.564Z,21.4830
2023-05-10T16:57:07.583Z,21.4061
2023-05-10T16:58:09.643Z,21.3231
2023-05-10T16:59:11.822Z,21.3197
2023-05-10T17:00:14.769Z,21.3551
2023-05-10T17:01:15.820Z,21.3742